Terminal Aerodrome Forecast
Issued by NWS

Home | Current Version | Previous Version | Text Only | Print | Product List | Glossary On
Versions: 1 2 3 4 5 6 7 8 9 10 11 12 13 14 15 16 17 18 19 20 21 22 23 24 25 26 27 28 29 30 31 32 33
276
FTUS46 KLOX 190647 AAA
TAFLAX
TAF AMD
KLAX 190647Z 1907/2012 11012G18KT P6SM -SHRA SCT025 BKN050
     FM191200 13015G22KT 3SM RA BR VCTS BKN015CB OVC025
     FM191630 25015G20KT P6SM -SHRA BKN025 BKN050
     FM192000 26018G25KT P6SM VCSH SCT025 BKN050
     FM200400 27015KT P6SM SCT025 BKN050=

USA.gov is the U.S. government's official web portal to all federal, state and local government web resources and services.